createdAt,value
2018-12-21T00:00:01.513Z,1.50
2018-12-21T00:02:29.085Z,1.50
2018-12-21T00:04:56.580Z,1.40
2018-12-21T00:07:24.100Z,1.40
2018-12-21T00:09:51.588Z,1.50
2018-12-21T00:12:19.052Z,1.30
2018-12-21T00:14:47.326Z,1.43
2018-12-21T00:17:14.795Z,1.67
2018-12-21T00:19:42.315Z,1.60
2018-12-21T00:22:09.846Z,1.43
2018-12-21T00:24:37.372Z,1.37
2018-12-21T00:27:04.848Z,1.47
2018-12-21T00:29:32.328Z,1.27
2018-12-21T00:32:05.374Z,1.30
2018-12-21T00:34:39.525Z,1.57
2018-12-21T00:37:12.704Z,1.40
2018-12-21T00:39:45.750Z,1.40
2018-12-21T00:42:15.243Z,1.40
2018-12-21T00:44:42.880Z,1.30
2018-12-21T00:47:11.809Z,1.60
2018-12-21T00:49:39.308Z,1.40
2018-12-21T00:52:06.922Z,1.20
2018-12-21T00:54:34.404Z,1.27
2018-12-21T00:57:01.874Z,1.37
2018-12-21T00:59:29.404Z,1.60
2018-12-21T01:01:57.683Z,1.30
2018-12-21T01:04:25.143Z,1.30
2018-12-21T01:06:52.628Z,1.30
2018-12-21T01:09:20.221Z,1.27
2018-12-21T01:11:47.751Z,1.57
2018-12-21T01:14:15.301Z,1.73
2018-12-21T01:16:42.859Z,1.77
2018-12-21T01:19:10.335Z,1.73
2018-12-21T01:21:38.837Z,1.80
2018-12-21T01:24:06.790Z,1.90
2018-12-21T01:26:34.263Z,2.00
2018-12-21T01:29:01.741Z,1.70
2018-12-21T01:31:29.221Z,1.80
2018-12-21T01:33:56.704Z,1.90
2018-12-21T01:36:24.165Z,1.70
2018-12-21T01:38:51.724Z,1.50
2018-12-21T01:41:19.195Z,1.67
2018-12-21T01:43:46.661Z,1.77
2018-12-21T01:46:14.121Z,2.10
2018-12-21T01:48:41.620Z,1.90
2018-12-21T01:51:09.189Z,1.90
2018-12-21T01:53:36.661Z,1.80
2018-12-21T01:56:04.190Z,1.90
2018-12-21T01:58:31.670Z,1.60
2018-12-21T02:00:59.131Z,1.70
2018-12-21T02:03:26.608Z,1.83
2018-12-21T02:05:54.076Z,1.70
2018-12-21T02:08:21.748Z,1.40
2018-12-21T02:10:49.330Z,1.53
2018-12-21T02:13:16.908Z,1.53
2018-12-21T02:15:44.383Z,1.87
2018-12-21T02:18:11.864Z,1.70
2018-12-21T02:20:39.376Z,1.80
2018-12-21T02:23:06.849Z,1.30
2018-12-21T02:25:34.320Z,1.57
2018-12-21T02:28:01.783Z,2.03
2018-12-21T02:30:29.313Z,1.83
2018-12-21T02:32:56.780Z,1.63
2018-12-21T02:35:24.235Z,1.70
2018-12-21T02:37:51.857Z,1.67
2018-12-21T02:40:19.317Z,1.53
2018-12-21T02:42:46.792Z,1.70
2018-12-21T02:45:14.262Z,1.70
2018-12-21T02:47:41.729Z,1.67
2018-12-21T02:50:09.273Z,1.50
2018-12-21T02:52:36.731Z,1.70
2018-12-21T02:55:04.281Z,1.30
2018-12-21T02:57:31.746Z,1.50
2018-12-21T02:59:59.227Z,1.40
2018-12-21T03:02:26.699Z,1.50
2018-12-21T03:04:54.233Z,1.57
2018-12-21T03:07:21.726Z,1.30
2018-12-21T03:09:49.224Z,1.57
2018-12-21T03:12:16.696Z,1.57
2018-12-21T03:14:44.174Z,1.50
2018-12-21T03:17:11.620Z,1.30
2018-12-21T03:19:39.088Z,1.10
2018-12-21T03:22:14.270Z,1.20
2018-12-21T03:24:36.070Z,1.57
2018-12-21T03:27:03.544Z,1.00
2018-12-21T03:29:31.027Z,1.70
2018-12-21T03:31:58.487Z,1.23
2018-12-21T03:34:25.960Z,1.20
2018-12-21T03:36:53.575Z,1.63
2018-12-21T03:39:21.064Z,1.43
2018-12-21T03:41:48.542Z,1.50
2018-12-21T03:44:16.024Z,1.83
2018-12-21T03:46:43.491Z,1.60
2018-12-21T03:49:10.979Z,2.00
2018-12-21T03:51:38.460Z,1.73
2018-12-21T03:54:05.938Z,1.83
2018-12-21T03:56:33.405Z,1.90
2018-12-21T03:59:00.885Z,1.67
2018-12-21T04:01:28.345Z,1.73
2018-12-21T04:03:55.843Z,2.03
2018-12-21T04:06:23.411Z,1.87
2018-12-21T04:08:51.816Z,1.60
2018-12-21T04:11:19.277Z,1.80
2018-12-21T04:13:46.743Z,1.70
2018-12-21T04:16:14.233Z,1.43
2018-12-21T04:18:41.708Z,1.30
2018-12-21T04:21:09.209Z,1.47
2018-12-21T04:23:36.681Z,2.37
2018-12-21T04:26:04.163Z,1.27
2018-12-21T04:28:32.644Z,1.30
2018-12-21T04:31:00.123Z,2.23
2018-12-21T04:33:27.609Z,1.40
2018-12-21T04:35:55.098Z,1.30
2018-12-21T04:38:22.566Z,1.30
2018-12-21T04:40:50.057Z,1.43
2018-12-21T04:43:17.531Z,1.33
2018-12-21T04:45:45.169Z,1.40
2018-12-21T04:48:12.634Z,2.37
2018-12-21T04:50:40.109Z,3.33
2018-12-21T04:53:07.582Z,1.57
2018-12-21T04:55:35.085Z,1.50
2018-12-21T04:58:02.744Z,1.23
2018-12-21T05:00:30.246Z,0.90
2018-12-21T05:02:57.718Z,1.10
2018-12-21T05:05:25.268Z,1.23
2018-12-21T05:07:52.771Z,1.40
2018-12-21T05:10:20.255Z,1.10
2018-12-21T05:12:47.846Z,1.03
2018-12-21T05:15:15.327Z,1.13
2018-12-21T05:17:42.816Z,1.10
2018-12-21T05:20:10.362Z,1.00
2018-12-21T05:22:37.896Z,0.90
2018-12-21T05:25:05.436Z,1.03
2018-12-21T05:27:32.895Z,1.10
2018-12-21T05:30:00.352Z,1.00
2018-12-21T05:32:27.994Z,1.00
2018-12-21T05:34:55.461Z,1.00
2018-12-21T05:37:22.934Z,0.80
2018-12-21T05:39:50.400Z,1.20
2018-12-21T05:42:17.889Z,1.10
2018-12-21T05:44:45.358Z,0.70
2018-12-21T05:47:12.837Z,0.97
2018-12-21T05:49:40.309Z,0.73
2018-12-21T05:52:07.794Z,0.80
2018-12-21T05:54:35.278Z,0.90
2018-12-21T05:57:02.954Z,1.00
2018-12-21T05:59:30.489Z,0.70
2018-12-21T06:01:57.961Z,0.80
2018-12-21T06:04:25.486Z,0.90
2018-12-21T06:06:52.998Z,0.90
2018-12-21T06:09:20.471Z,0.90
2018-12-21T06:11:47.969Z,1.00
2018-12-21T06:14:15.461Z,0.90
2018-12-21T06:16:42.945Z,0.80
2018-12-21T06:19:12.270Z,1.13
2018-12-21T06:21:39.959Z,1.00
2018-12-21T06:24:07.441Z,1.10
2018-12-21T06:26:34.935Z,0.67
2018-12-21T06:29:02.441Z,1.30
2018-12-21T06:31:29.958Z,1.10
2018-12-21T06:33:57.417Z,1.40
2018-12-21T06:36:24.899Z,1.17
2018-12-21T06:38:52.373Z,0.80
2018-12-21T06:41:19.915Z,1.27
2018-12-21T06:43:47.395Z,1.00
2018-12-21T06:46:14.862Z,1.20
2018-12-21T06:48:42.347Z,1.30
2018-12-21T06:51:09.814Z,0.80
2018-12-21T06:53:37.297Z,1.00
2018-12-21T06:56:04.763Z,0.90
2018-12-21T06:58:32.237Z,0.97
2018-12-21T07:01:00.723Z,0.70
2018-12-21T07:03:28.506Z,1.40
2018-12-21T07:05:55.968Z,1.30
2018-12-21T07:08:23.514Z,0.90
2018-12-21T07:10:51.016Z,0.77
2018-12-21T07:13:18.566Z,0.80
2018-12-21T07:15:46.120Z,0.97
2018-12-21T07:18:13.596Z,1.10
2018-12-21T07:20:41.128Z,0.83
2018-12-21T07:23:08.591Z,1.00
2018-12-21T07:25:36.074Z,1.20
2018-12-21T07:28:03.561Z,1.20
2018-12-21T07:30:31.118Z,0.90
2018-12-21T07:32:58.584Z,0.70
2018-12-21T07:35:26.141Z,0.73
2018-12-21T07:37:54.826Z,0.83
2018-12-21T07:40:22.324Z,0.90
2018-12-21T07:42:49.770Z,0.97
2018-12-21T07:45:17.264Z,0.90
2018-12-21T07:47:45.396Z,0.80
2018-12-21T07:50:12.871Z,1.03
2018-12-21T07:52:40.352Z,1.10
2018-12-21T07:55:08.055Z,1.10
2018-12-21T07:57:35.580Z,0.83
2018-12-21T08:00:06.411Z,0.87
2018-12-21T08:02:33.882Z,1.03
2018-12-21T08:05:01.369Z,1.00
2018-12-21T08:07:28.931Z,1.03
2018-12-21T08:09:56.418Z,0.97
2018-12-21T08:12:23.942Z,1.10
2018-12-21T08:14:51.423Z,1.13
2018-12-21T08:17:18.872Z,0.90
2018-12-21T08:19:46.360Z,1.20
2018-12-21T08:22:13.834Z,0.77
2018-12-21T08:24:41.318Z,1.10
2018-12-21T08:27:08.800Z,1.03
2018-12-21T08:29:36.282Z,0.93
2018-12-21T08:32:03.764Z,1.00
2018-12-21T08:34:31.236Z,1.30
2018-12-21T08:36:59.648Z,1.20
2018-12-21T08:39:27.112Z,0.90
2018-12-21T08:41:54.586Z,1.40
2018-12-21T08:44:22.074Z,1.20
2018-12-21T08:46:49.546Z,1.10
2018-12-21T08:49:17.104Z,1.30
2018-12-21T08:51:44.596Z,1.50
2018-12-21T08:54:12.067Z,1.63
2018-12-21T08:56:39.581Z,1.27
2018-12-21T08:59:07.047Z,1.40
2018-12-21T09:01:34.520Z,1.70
2018-12-21T09:04:01.987Z,1.57
2018-12-21T09:06:29.476Z,1.60
2018-12-21T09:08:56.947Z,1.30
2018-12-21T09:11:24.483Z,1.40
2018-12-21T09:13:51.971Z,1.10
2018-12-21T09:16:19.462Z,1.60
2018-12-21T09:18:46.926Z,1.30
2018-12-21T09:21:14.389Z,1.37
2018-12-21T09:23:41.867Z,1.60
2018-12-21T09:26:09.355Z,1.20
2018-12-21T09:28:36.823Z,1.40
2018-12-21T09:31:04.313Z,1.50
2018-12-21T09:33:31.782Z,1.57
2018-12-21T09:35:59.277Z,1.57
2018-12-21T09:38:26.751Z,1.60
2018-12-21T09:40:54.237Z,1.50
2018-12-21T09:43:21.705Z,1.53
2018-12-21T09:45:49.215Z,1.77
2018-12-21T09:48:16.771Z,1.20
2018-12-21T09:50:44.233Z,1.40
2018-12-21T09:53:11.704Z,1.57
2018-12-21T09:55:39.181Z,1.57
2018-12-21T09:58:06.641Z,1.40
2018-12-21T10:00:34.118Z,1.30
2018-12-21T10:03:01.596Z,1.30
2018-12-21T10:05:29.073Z,1.23
2018-12-21T10:07:56.520Z,1.10
2018-12-21T10:10:24.009Z,1.20
2018-12-21T10:12:53.433Z,1.00
2018-12-21T10:15:21.030Z,0.90
2018-12-21T10:17:48.507Z,1.10
2018-12-21T10:20:19.940Z,1.10
2018-12-21T10:22:45.466Z,1.00
2018-12-21T10:25:12.949Z,1.53
2018-12-21T10:27:40.410Z,1.00
2018-12-21T10:30:09.499Z,1.00
2018-12-21T10:32:37.029Z,0.90
2018-12-21T10:35:05.642Z,0.87
2018-12-21T10:37:33.125Z,0.80
2018-12-21T10:40:00.632Z,1.23
2018-12-21T10:42:28.093Z,1.00
2018-12-21T10:44:55.559Z,1.60
2018-12-21T10:47:23.197Z,1.10
2018-12-21T10:49:50.667Z,0.80
2018-12-21T10:52:18.142Z,1.10
2018-12-21T10:54:45.623Z,0.90
2018-12-21T10:57:13.107Z,1.00
2018-12-21T10:59:43.515Z,1.10
2018-12-21T11:02:10.055Z,1.20
2018-12-21T11:04:37.520Z,1.10
2018-12-21T11:07:05.010Z,0.97
2018-12-21T11:09:32.479Z,1.13
2018-12-21T11:12:00.031Z,1.10
2018-12-21T11:14:27.514Z,1.03
2018-12-21T11:16:55.131Z,1.10
2018-12-21T11:19:22.617Z,0.70
2018-12-21T11:21:50.126Z,1.00
2018-12-21T11:24:17.590Z,1.17
2018-12-21T11:26:45.073Z,1.43
2018-12-21T11:29:12.539Z,0.97
2018-12-21T11:31:40.030Z,1.10
2018-12-21T11:34:07.518Z,0.90
2018-12-21T11:36:35.292Z,1.00
2018-12-21T11:39:03.567Z,0.90
2018-12-21T11:41:31.046Z,1.17
2018-12-21T11:43:58.515Z,1.07
2018-12-21T11:46:26.135Z,0.90
2018-12-21T11:48:53.840Z,1.47
2018-12-21T11:51:21.599Z,1.47
2018-12-21T11:53:49.053Z,0.97
2018-12-21T11:56:16.540Z,0.90
2018-12-21T11:58:44.002Z,1.00
2018-12-21T12:01:11.479Z,0.90
2018-12-21T12:03:38.962Z,1.30
2018-12-21T12:06:06.431Z,1.07
2018-12-21T12:08:33.909Z,1.10
2018-12-21T12:11:01.360Z,2.17
2018-12-21T12:13:28.830Z,1.10
2018-12-21T12:15:56.301Z,0.90
2018-12-21T12:18:23.761Z,0.90
2018-12-21T12:20:51.232Z,0.90
2018-12-21T12:23:18.717Z,1.00
2018-12-21T12:25:46.189Z,0.60
2018-12-21T12:28:13.657Z,0.77
2018-12-21T12:30:41.163Z,0.90
2018-12-21T12:33:08.654Z,1.50
2018-12-21T12:35:36.135Z,1.03
2018-12-21T12:38:03.659Z,0.87
2018-12-21T12:40:31.147Z,1.80
2018-12-21T12:42:58.623Z,1.37
2018-12-21T12:45:26.231Z,1.40
2018-12-21T12:47:53.714Z,0.90
2018-12-21T12:50:21.233Z,0.67
2018-12-21T12:52:48.715Z,1.10
2018-12-21T12:55:16.259Z,0.80
2018-12-21T12:57:43.725Z,0.70
2018-12-21T13:00:11.399Z,0.80
2018-12-21T13:02:38.882Z,0.77
2018-12-21T13:05:06.774Z,0.73
2018-12-21T13:07:34.365Z,0.63
2018-12-21T13:10:01.949Z,0.70
2018-12-21T13:12:29.498Z,0.60
2018-12-21T13:14:56.977Z,2.00
2018-12-21T13:17:24.444Z,1.23
2018-12-21T13:19:51.922Z,0.83
2018-12-21T13:22:19.389Z,0.80
2018-12-21T13:24:46.914Z,0.90
2018-12-21T13:27:14.392Z,0.83
2018-12-21T13:29:41.880Z,0.93
2018-12-21T13:32:09.331Z,1.00
2018-12-21T13:34:36.832Z,0.80
2018-12-21T13:37:04.468Z,1.03
2018-12-21T13:39:31.939Z,0.90
2018-12-21T13:41:59.450Z,0.70
2018-12-21T13:44:26.915Z,0.63
2018-12-21T13:46:54.408Z,0.70
2018-12-21T13:49:21.965Z,0.73
2018-12-21T13:51:49.445Z,0.70
2018-12-21T13:54:16.926Z,0.50
2018-12-21T13:56:44.389Z,0.50
2018-12-21T13:59:11.867Z,0.80
2018-12-21T14:01:39.373Z,0.50
2018-12-21T14:04:06.857Z,0.50
2018-12-21T14:06:35.507Z,0.50
2018-12-21T14:09:03.403Z,0.53
2018-12-21T14:11:30.920Z,0.57
2018-12-21T14:13:58.404Z,0.43
2018-12-21T14:16:25.891Z,0.50
2018-12-21T14:18:53.361Z,0.60
2018-12-21T14:21:20.852Z,0.30
2018-12-21T14:23:48.365Z,0.40
2018-12-21T14:26:15.834Z,0.60
2018-12-21T14:28:43.316Z,0.50
2018-12-21T14:31:10.779Z,0.77
2018-12-21T14:33:38.263Z,0.60
2018-12-21T14:36:05.734Z,0.47
2018-12-21T14:38:33.220Z,0.50
2018-12-21T14:41:00.690Z,0.50
2018-12-21T14:43:28.173Z,0.43
2018-12-21T14:45:55.653Z,0.40
2018-12-21T14:48:23.216Z,0.40
2018-12-21T14:50:50.679Z,0.40
2018-12-21T14:53:18.142Z,0.50
2018-12-21T14:55:45.634Z,0.37
2018-12-21T14:58:13.118Z,0.50
2018-12-21T15:00:40.616Z,0.53
2018-12-21T15:03:08.082Z,0.40
2018-12-21T15:05:35.578Z,0.40
2018-12-21T15:08:03.083Z,0.47
2018-12-21T15:10:30.574Z,0.60
2018-12-21T15:12:58.058Z,0.23
2018-12-21T15:15:25.550Z,0.50
2018-12-21T15:17:53.054Z,0.50
2018-12-21T15:20:20.548Z,0.20
2018-12-21T15:22:48.026Z,0.23
2018-12-21T15:25:15.501Z,0.50
2018-12-21T15:27:42.986Z,0.20
2018-12-21T15:30:10.583Z,0.30
2018-12-21T15:32:38.074Z,0.20
2018-12-21T15:35:05.751Z,0.20
2018-12-21T15:37:33.355Z,0.30
2018-12-21T15:40:00.848Z,0.27
2018-12-21T15:42:28.321Z,0.27
2018-12-21T15:44:55.814Z,0.30
2018-12-21T15:47:23.387Z,0.30
2018-12-21T15:49:50.861Z,0.30
2018-12-21T15:52:18.352Z,0.27
2018-12-21T15:54:45.835Z,0.30
2018-12-21T15:57:13.416Z,0.20
2018-12-21T15:59:40.889Z,0.30
2018-12-21T16:02:08.385Z,0.30
2018-12-21T16:04:35.860Z,0.20
2018-12-21T16:07:03.458Z,0.40
2018-12-21T16:09:30.930Z,0.40
2018-12-21T16:11:58.385Z,0.30
2018-12-21T16:14:34.050Z,0.40
2018-12-21T16:16:55.350Z,0.37
2018-12-21T16:19:22.894Z,0.57
2018-12-21T16:21:50.367Z,0.30
2018-12-21T16:24:17.873Z,0.20
2018-12-21T16:26:45.360Z,0.20
2018-12-21T16:29:12.856Z,0.30
2018-12-21T16:31:40.432Z,0.57
2018-12-21T16:34:07.964Z,0.30
2018-12-21T16:36:35.490Z,0.47
2018-12-21T16:39:04.124Z,0.47
2018-12-21T16:41:31.611Z,0.43
2018-12-21T16:43:59.088Z,0.50
2018-12-21T16:46:27.293Z,0.40
2018-12-21T16:48:54.778Z,0.80
2018-12-21T16:51:22.250Z,0.47
2018-12-21T16:53:49.754Z,0.40
2018-12-21T16:56:17.420Z,0.60
2018-12-21T16:58:44.915Z,0.50
2018-12-21T17:01:12.398Z,0.40
2018-12-21T17:03:39.912Z,0.50
2018-12-21T17:06:07.386Z,0.40
2018-12-21T17:08:34.910Z,0.77
2018-12-21T17:11:02.413Z,0.60
2018-12-21T17:13:29.894Z,1.00
2018-12-21T17:15:57.374Z,0.60
2018-12-21T17:18:25.606Z,0.37
2018-12-21T17:20:53.097Z,0.40
2018-12-21T17:23:20.565Z,0.30
2018-12-21T17:25:48.059Z,0.40
2018-12-21T17:28:15.539Z,0.27
2018-12-21T17:30:43.037Z,0.40
2018-12-21T17:33:10.511Z,0.50
2018-12-21T17:35:37.991Z,0.53
2018-12-21T17:38:05.537Z,0.40
2018-12-21T17:40:33.019Z,0.40
2018-12-21T17:43:00.485Z,0.37
2018-12-21T17:45:28.006Z,0.23
2018-12-21T17:47:56.497Z,0.50
2018-12-21T17:50:23.997Z,0.60
2018-12-21T17:52:51.724Z,0.50
2018-12-21T17:55:19.218Z,0.30
2018-12-21T17:57:46.685Z,0.40
2018-12-21T18:00:15.025Z,0.40
2018-12-21T18:02:44.497Z,0.20
2018-12-21T18:05:11.990Z,0.60
2018-12-21T18:07:39.468Z,0.40
2018-12-21T18:10:09.800Z,0.90
2018-12-21T18:12:37.286Z,0.53
2018-12-21T18:15:07.505Z,0.50
2018-12-21T18:17:35.011Z,0.50
2018-12-21T18:20:03.031Z,0.40
2018-12-21T18:22:30.511Z,0.30
2018-12-21T18:24:58.014Z,0.40
2018-12-21T18:27:25.496Z,0.50
2018-12-21T18:29:52.998Z,0.50
2018-12-21T18:32:20.614Z,0.20
2018-12-21T18:34:48.086Z,0.30
2018-12-21T18:37:15.582Z,0.37
2018-12-21T18:39:43.070Z,0.30
2018-12-21T18:42:10.618Z,0.50
2018-12-21T18:44:38.090Z,0.40
2018-12-21T18:47:05.576Z,0.40
2018-12-21T18:49:33.046Z,0.40
2018-12-21T18:52:00.689Z,0.60
2018-12-21T18:54:28.146Z,0.53
2018-12-21T18:56:55.813Z,0.37
2018-12-21T18:59:23.299Z,0.47
2018-12-21T19:01:50.845Z,0.60
2018-12-21T19:04:18.304Z,0.50
2018-12-21T19:06:45.790Z,0.40
2018-12-21T19:09:13.264Z,0.60
2018-12-21T19:11:40.758Z,0.40
2018-12-21T19:14:08.230Z,0.63
2018-12-21T19:16:35.721Z,0.60
2018-12-21T19:19:03.261Z,0.40
2018-12-21T19:21:30.760Z,0.50
2018-12-21T19:23:58.235Z,0.80
2018-12-21T19:26:25.827Z,1.30
2018-12-21T19:28:53.313Z,0.77
2018-12-21T19:31:20.789Z,0.70
2018-12-21T19:33:48.265Z,0.50
2018-12-21T19:36:15.783Z,0.40
2018-12-21T19:38:43.292Z,0.60
2018-12-21T19:41:11.919Z,0.67
2018-12-21T19:43:39.785Z,0.70
2018-12-21T19:46:08.731Z,0.70
2018-12-21T19:48:36.391Z,0.63
2018-12-21T19:51:03.899Z,0.90
2018-12-21T19:53:31.394Z,0.90
2018-12-21T19:56:00.000Z,0.90
2018-12-21T19:58:27.489Z,1.10
2018-12-21T20:00:54.986Z,1.30
2018-12-21T20:03:22.603Z,1.23
2018-12-21T20:05:50.075Z,1.00
2018-12-21T20:08:17.556Z,0.97
2018-12-21T20:10:45.049Z,0.83
2018-12-21T20:13:12.544Z,1.03
2018-12-21T20:15:40.036Z,1.20
2018-12-21T20:18:07.663Z,1.00
2018-12-21T20:20:35.147Z,1.00
2018-12-21T20:23:02.629Z,0.90
2018-12-21T20:25:30.114Z,1.30
2018-12-21T20:27:57.619Z,1.33
2018-12-21T20:30:25.185Z,1.40
2018-12-21T20:32:52.654Z,1.30
2018-12-21T20:35:20.197Z,1.40
2018-12-21T20:37:47.737Z,2.00
2018-12-21T20:40:15.463Z,1.60
2018-12-21T20:42:42.982Z,1.37
2018-12-21T20:45:11.185Z,1.43
2018-12-21T20:47:38.683Z,1.70
2018-12-21T20:50:10.052Z,1.40
2018-12-21T20:52:37.529Z,2.20
2018-12-21T20:55:08.557Z,1.90
2018-12-21T20:57:37.819Z,1.67
2018-12-21T21:00:15.359Z,2.13
2018-12-21T21:02:42.860Z,1.90
2018-12-21T21:05:10.457Z,2.23
2018-12-21T21:07:37.963Z,1.80
2018-12-21T21:10:09.780Z,1.50
2018-12-21T21:12:37.395Z,2.10
2018-12-21T21:15:08.759Z,1.87
2018-12-21T21:17:36.668Z,2.20
2018-12-21T21:20:09.566Z,1.83
2018-12-21T21:22:37.093Z,2.00
2018-12-21T21:25:06.775Z,2.37
2018-12-21T21:27:34.261Z,2.40
2018-12-21T21:30:01.791Z,1.87
2018-12-21T21:32:29.262Z,2.40
2018-12-21T21:34:56.906Z,2.43
2018-12-21T21:37:24.415Z,1.90
2018-12-21T21:39:51.932Z,1.93
2018-12-21T21:42:19.425Z,2.00
2018-12-21T21:44:53.817Z,1.73
2018-12-21T21:47:28.430Z,2.10
2018-12-21T21:49:55.909Z,1.67
2018-12-21T21:52:23.397Z,1.97
2018-12-21T21:54:50.973Z,1.40
2018-12-21T21:57:18.481Z,1.60
2018-12-21T21:59:45.997Z,1.87
2018-12-21T22:02:13.483Z,1.90
2018-12-21T22:04:40.959Z,2.00
2018-12-21T22:07:08.437Z,1.70
2018-12-21T22:09:35.927Z,1.87
2018-12-21T22:12:03.483Z,2.27
2018-12-21T22:14:30.974Z,2.43
2018-12-21T22:16:58.469Z,1.57
2018-12-21T22:19:25.961Z,1.90
2018-12-21T22:21:54.286Z,2.00
2018-12-21T22:24:21.779Z,2.10
2018-12-21T22:26:49.267Z,1.70
2018-12-21T22:29:16.749Z,2.27
2018-12-21T22:31:44.243Z,2.23
2018-12-21T22:34:11.713Z,2.27
2018-12-21T22:36:39.212Z,2.63
2018-12-21T22:39:06.707Z,2.27
2018-12-21T22:41:34.213Z,2.20
2018-12-21T22:44:01.834Z,2.43
2018-12-21T22:46:30.380Z,2.30
2018-12-21T22:48:57.884Z,2.23
2018-12-21T22:51:25.380Z,1.97
2018-12-21T22:53:52.854Z,1.70
2018-12-21T22:56:20.390Z,1.90
2018-12-21T22:58:47.868Z,1.90
2018-12-21T23:01:15.438Z,2.20
2018-12-21T23:03:42.923Z,3.23
2018-12-21T23:06:10.423Z,2.13
2018-12-21T23:08:37.891Z,2.00
2018-12-21T23:11:05.378Z,2.33
2018-12-21T23:13:32.858Z,2.80
2018-12-21T23:16:00.362Z,2.10
2018-12-21T23:18:27.835Z,2.20
2018-12-21T23:20:55.312Z,2.23
2018-12-21T23:23:22.798Z,2.07
2018-12-21T23:25:50.292Z,2.30
2018-12-21T23:28:17.778Z,2.50
2018-12-21T23:30:45.320Z,2.10
2018-12-21T23:33:12.802Z,1.90
2018-12-21T23:35:40.292Z,2.30
2018-12-21T23:38:07.764Z,2.20
2018-12-21T23:40:35.252Z,2.20
2018-12-21T23:43:02.742Z,2.00
2018-12-21T23:45:30.233Z,2.53
2018-12-21T23:47:57.729Z,2.90
2018-12-21T23:50:25.275Z,2.33
2018-12-21T23:52:52.861Z,2.20
2018-12-21T23:55:20.352Z,2.27
2018-12-21T23:57:47.881Z,2.57
